Terminal Aerodrome Forecast
Issued by NWS

Home | Current Version | Previous Version | Text Only | Print | Product List | Glossary On
Versions: 1 2 3 4 5 6 7 8 9 10 11 12 13 14 15 16 17 18 19 20
398
FTUS44 KJAN 022332
TAFHKS
TAF
KHKS 022332Z 0300/0324 33005KT P6SM SCT030 BKN045 BKN050
     FM031100 34003KT 6SM BR OVC003
     FM031400 35004KT P6SM OVC015
     FM031800 34008KT P6SM OVC050=

USA.gov is the U.S. government's official web portal to all federal, state and local government web resources and services.